Participated 1 time
in 1933
Leopold Roosemont, Belgium
Tour de France 2026 starts from Barcelona, Spain in

Stats and Facts from
Tour de France.

2026   2025   2024   2023  2022  2021  2020  2019   2018  2017   2016   2015  2014  2013   2012   2011  2010   2009   2008   2007   2006   2005   2004   2003   2002   2001   2000   1999   1998   1997  1996   1995   1994   1993   1992  1991   1990   1989   1988   1987   1986   1985   1984   1983  1982  1981   1980   1979  1978  1977   1976  1975  1974  1973   1972   1971   1970  1969   1968   1967   1966   1965  1964  1963   1962   1961   1960   1959   1958   1957  1956   1955   1954   1953   1952  1951  1950  1949   1948  1947  1939   1938   1937   1936   1935   1934   1933  1932   1931   1930  1929   1928   1927   1926  1925  1924  1923   1922   1921   1920   1919  1914   1913   1912   1911   1910  1909   1908   1907   1906  1905  1904   1903 

Tourstats
Sitemap

After stage 21 - 2025:
 16451 starters.
  5464 different riders.
  689 teams.
  2398 stages.
  470 restdays.
  466506.50 km.
  5925 abandoned riders.

Click map for 1959 route.
Facts from Tour de France 1959
  |   Stages.  |   Stage winners.  |   Days in jerseys.  |   Teams.  |   All riders.  |   All riders by age.  |   All riders from.  |  

  |   Rookies.  |   Withdrawls.  |   Average speed.  |   GC.  |   Polka  |   Green  |   White  |   Summits. (In tour)  |   Miscellaneous.  |  

Stage 18 on July 14th. 1959
Pick a stage:  1  2  3  4  5  6  7  8  9  10  11  12  13  14  15  16  17  18  19  20  21  22  

After stage 18:    Federico Bahamontes  
  Le LautaretSaint-Vincent d´Aoste | Dist: 243.00km. | Winner: Ercole Baldini

Podium
2  Col du Galibier Charly Gaulafter7.00 km.

1  Col de l'Iseran Adolf Christianafter114.50 km.

1  Col du Petit Saint Bernard Michele Gismondiafter186.50 km.


Average speed for all riders in stage:  30,280 km./hr.

1
 Ercole Baldini  Italy07h 48' 43"=31,106  km/h

2
 Charly Gaul  Holland-Luxembourg07h 48' 43"=31,106  km/h

3
 Gerard Saint  Ouest-Sud Ouest07h 48' 43"=31,106  km/h

4  Henri Anglade  Centre-Midi07h 48' 43"=31,106  km/h

5  Michele Gismondi  Italy07h 48' 43"=31,106  km/h

6  Adolf Christian  Internations07h 48' 43"=31,106  km/h

7  Brian Robinson  Internations07h 49' 30"+  00:00:47 =31,054  km/h

8  Jacques Anquetil  France07h 49' 30"+  00:00:47 =31,054  km/h

9  Jean Brankart  Belgium07h 49' 30"+  00:00:47 =31,054  km/h

10  Roger Rivière  France07h 49' 30"+  00:00:47 =31,054  km/h

11  Jan Adriaensens  Belgium07h 49' 30"+  00:00:47 =31,054  km/h

12  François Mahé  Ouest-Sud Ouest07h 49' 30"+  00:00:47 =31,054  km/h

13  Michel Van Aerde  Belgium07h 49' 30"+  00:00:47 =31,054  km/h

14  Federico Bahamontes  Spain07h 49' 30"+  00:00:47 =31,054  km/h

15  José Gomez del Moral  Spain07h 49' 30"+  00:00:47 =31,054  km/h

16  Frans Reitz  Switzerland-Germany07h 53' 22"+  00:04:39 =30,801  km/h

17  Raymond Hoorelbeke  Paris-Nord Est07h 55' 52"+  00:07:09 =30,639  km/h

18  Raphaël Geminiani  France07h 55' 52"+  00:07:09 =30,639  km/h

19  Victor Sutton  Internations07h 55' 52"+  00:07:09 =30,639  km/h

20  Edouard Delberghe  Paris-Nord Est07h 55' 52"+  00:07:09 =30,639  km/h

21  Louis Bergaud  Centre-Midi07h 55' 52"+  00:07:09 =30,639  km/h

22  Marcel Rohrbach  Centre-Midi07h 55' 52"+  00:07:09 =30,639  km/h

23  Jos Hoevenaers  Belgium07h 55' 52"+  00:07:09 =30,639  km/h

24  Jean-Baptiste Dotto  Centre-Midi07h 55' 52"+  00:07:09 =30,639  km/h

25  André Darrigade  France07h 58' 52"+  00:10:09 =30,447  km/h

26  Roberto Falaschi  Italy07h 58' 52"+  00:10:09 =30,447  km/h

27  Fred De Bruyne  Belgium07h 58' 52"+  00:10:09 =30,447  km/h

28  Robert Cazala  France07h 58' 52"+  00:10:09 =30,447  km/h

29  Piet Damen  Holland-Luxembourg07h 58' 52"+  00:10:09 =30,447  km/h

30  Marcel Ernzer  Holland-Luxembourg07h 58' 52"+  00:10:09 =30,447  km/h

31  Marcel Janssens  Belgium07h 58' 52"+  00:10:09 =30,447  km/h

32  Joseph Thomin  Ouest-Sud Ouest07h 58' 52"+  00:10:09 =30,447  km/h

33  Jean Robic  Paris-Nord Est07h 58' 52"+  00:10:09 =30,447  km/h

34  Carmelo Morales  Spain07h 58' 52"+  00:10:09 =30,447  km/h

35  Jaap Kersten  Holland-Luxembourg07h 58' 52"+  00:10:09 =30,447  km/h

36  Ernesto Bono  Italy07h 58' 52"+  00:10:09 =30,447  km/h

37  Valentin Huot  Centre-Midi07h 58' 52"+  00:10:09 =30,447  km/h

38  Fernando Manzaneque  Spain07h 58' 52"+  00:10:09 =30,447  km/h

39  Joseph Planckaert  Belgium08h 01' 32"+  00:12:49 =30,278  km/h

40  Lothar Friedrich  Switzerland-Germany08h 01' 32"+  00:12:49 =30,278  km/h

41  Michel Vermeulin  Paris-Nord Est08h 01' 32"+  00:12:49 =30,278  km/h

42  Armand Desmet  Belgium08h 01' 32"+  00:12:49 =30,278  km/h

43  Jean Forestier  Centre-Midi08h 01' 32"+  00:12:49 =30,278  km/h

44  Jean Graczyk  France08h 01' 32"+  00:12:49 =30,278  km/h

45  Marcel Queheille  Ouest-Sud Ouest08h 01' 32"+  00:12:49 =30,278  km/h

46  Joseph Groussard  Ouest-Sud Ouest08h 04' 26"+  00:15:43 =30,097  km/h

47  Fernand Picot  Ouest-Sud Ouest08h 04' 26"+  00:15:43 =30,097  km/h

48  Aurelio Cestari  Italy08h 04' 26"+  00:15:43 =30,097  km/h

49  Félix Le Buhotel  Ouest-Sud Ouest08h 04' 26"+  00:15:43 =30,097  km/h

50  Eddy Pauwels  Belgium08h 04' 26"+  00:15:43 =30,097  km/h

51  Manuel Busto  Centre-Midi08h 04' 26"+  00:15:43 =30,097  km/h

52  Max Bleneau  Ouest-Sud Ouest08h 09' 23"+  00:20:40 =29,793  km/h

53  Tadeusz Wierucki  Internations08h 09' 23"+  00:20:40 =29,793  km/h

54  Kamiel Buysse  Belgium08h 12' 53"+  00:24:10 =29,581  km/h

55  Waldemaro Bartolozzi  Italy08h 12' 53"+  00:24:10 =29,581  km/h

56  Arrigo Padovan  Italy08h 12' 53"+  00:24:10 =29,581  km/h

57  Aldo Bolzan  Holland-Luxembourg08h 12' 53"+  00:24:10 =29,581  km/h

58  Pierino Baffi  Italy08h 12' 53"+  00:24:10 =29,581  km/h

59  Martin Van Geneugden  Belgium08h 12' 53"+  00:24:10 =29,581  km/h

60  Dino Bruni  Italy08h 12' 53"+  00:24:10 =29,581  km/h

61  Nello Fabbri  Italy08h 12' 53"+  00:24:10 =29,581  km/h

62  Juan Campillo  Spain08h 12' 53"+  00:24:10 =29,581  km/h

63  Settimo Sabbadini  Ouest-Sud Ouest08h 12' 53"+  00:24:10 =29,581  km/h

64  Louis Bisilliat  Centre-Midi08h 12' 53"+  00:24:10 =29,581  km/h

65  Julio San Emeterio  Spain08h 12' 53"+  00:24:10 =29,581  km/h

66  Ernst Traxel  Switzerland-Germany08h 12' 53"+  00:24:10 =29,581  km/h

67  Rolf Graf  Switzerland-Germany08h 12' 53"+  00:24:10 =29,581  km/h

68  Louis Rostollan  Centre-Midi08h 12' 53"+  00:24:10 =29,581  km/h

69  René Marigil  Spain08h 12' 53"+  00:24:10 =29,581  km/h

70  Stéphane Lach  Paris-Nord Est08h 16' 35"+  00:27:52 =29,361  km/h

71  Antonio Baptista  Internations08h 21' 16"+  00:32:33 =29,086  km/h

72  Orphée Meneghini  Paris-Nord Est08h 26' 30"+  00:37:47 =28,786  km/h


Withdrawls: 4
 RiderTeamReason
62   Louison Bobet FranceDid not finish
110   Mathias Löder Switzerland-GermanyDid not finish
161   Jean-Claude Annaert Paris-Nord EstDid not finish
183   Jean Gainche Ouest-Sud OuestDid not finish
Todays birthdays.

1889 • Adolphe Landon
1890 • Jules Lebreton
1904 • Julien Grujon
1909 • Erich Metze
1926 • Giovanni Rossi
1928 • Serge Blusson
1928 • Alois Vansteenkiste
1931 • André Dupré
1934 • Alfred Rüegg
1962 • Francisco Espinosa
1962 • Paul Kimmage
1963 • Federico Muñoz
1966 • Andrea Tafi
1971 • Emmanuel Magnien
1973 • Paolo Savoldelli
1985 • Mikhail Ignatyev

 

Optimized for Chrome - Edge
and Opera browsers.